sensor_id;sensor_type;location;lat;lon;timestamp;P1;durP1;ratioP1;P2;durP2;ratioP2
68089;SDS011;54880;50.986;6.990;2023-08-12T00:01:00;28.60;;;16.20;;
68089;SDS011;54880;50.986;6.990;2023-08-12T00:03:26;26.93;;;16.53;;
68089;SDS011;54880;50.986;6.990;2023-08-12T00:05:51;27.37;;;16.70;;
68089;SDS011;54880;50.986;6.990;2023-08-12T00:08:17;28.60;;;16.67;;
68089;SDS011;54880;50.986;6.990;2023-08-12T00:10:42;30.83;;;16.60;;
68089;SDS011;54880;50.986;6.990;2023-08-12T00:13:08;29.02;;;16.38;;
68089;SDS011;54880;50.986;6.990;2023-08-12T00:15:33;28.07;;;15.93;;
68089;SDS011;54880;50.986;6.990;2023-08-12T00:17:59;29.50;;;16.87;;
68089;SDS011;54880;50.986;6.990;2023-08-12T00:20:24;28.83;;;16.57;;
68089;SDS011;54880;50.986;6.990;2023-08-12T00:22:49;23.80;;;14.03;;
68089;SDS011;54880;50.986;6.990;2023-08-12T00:25:15;26.30;;;14.93;;
68089;SDS011;54880;50.986;6.990;2023-08-12T00:27:40;26.83;;;15.47;;
68089;SDS011;54880;50.986;6.990;2023-08-12T00:30:05;25.70;;;15.17;;
68089;SDS011;54880;50.986;6.990;2023-08-12T00:32:31;21.55;;;14.45;;
68089;SDS011;54880;50.986;6.990;2023-08-12T00:34:56;25.03;;;14.87;;
68089;SDS011;54880;50.986;6.990;2023-08-12T00:37:21;26.57;;;16.30;;
68089;SDS011;54880;50.986;6.990;2023-08-12T00:39:47;25.53;;;15.00;;
68089;SDS011;54880;50.986;6.990;2023-08-12T00:42:12;23.40;;;14.67;;
68089;SDS011;54880;50.986;6.990;2023-08-12T00:44:38;23.50;;;13.80;;
68089;SDS011;54880;50.986;6.990;2023-08-12T00:47:03;24.63;;;14.23;;
68089;SDS011;54880;50.986;6.990;2023-08-12T00:49:28;21.50;;;14.03;;
68089;SDS011;54880;50.986;6.990;2023-08-12T00:51:54;23.85;;;14.73;;
68089;SDS011;54880;50.986;6.990;2023-08-12T00:54:21;21.27;;;13.57;;
68089;SDS011;54880;50.986;6.990;2023-08-12T00:56:48;21.38;;;14.23;;
68089;SDS011;54880;50.986;6.990;2023-08-12T00:59:13;22.88;;;13.45;;
68089;SDS011;54880;50.986;6.990;2023-08-12T01:01:40;19.90;;;12.75;;
68089;SDS011;54880;50.986;6.990;2023-08-12T01:04:06;23.38;;;13.82;;
68089;SDS011;54880;50.986;6.990;2023-08-12T01:06:32;21.50;;;13.83;;
68089;SDS011;54880;50.986;6.990;2023-08-12T01:08:57;25.90;;;14.90;;
68089;SDS011;54880;50.986;6.990;2023-08-12T01:16:29;23.93;;;15.20;;
68089;SDS011;54880;50.986;6.990;2023-08-12T01:18:55;25.15;;;15.00;;
68089;SDS011;54880;50.986;6.990;2023-08-12T01:21:21;23.50;;;14.70;;
68089;SDS011;54880;50.986;6.990;2023-08-12T01:23:46;26.13;;;14.23;;
68089;SDS011;54880;50.986;6.990;2023-08-12T01:26:11;25.77;;;13.50;;
68089;SDS011;54880;50.986;6.990;2023-08-12T01:28:36;24.00;;;14.90;;
68089;SDS011;54880;50.986;6.990;2023-08-12T01:31:12;24.00;;;14.60;;
68089;SDS011;54880;50.986;6.990;2023-08-12T01:33:42;23.77;;;15.05;;
68089;SDS011;54880;50.986;6.990;2023-08-12T01:36:16;25.65;;;15.15;;
68089;SDS011;54880;50.986;6.990;2023-08-12T01:38:42;25.25;;;14.77;;
68089;SDS011;54880;50.986;6.990;2023-08-12T01:41:09;25.13;;;14.37;;
68089;SDS011;54880;50.986;6.990;2023-08-12T01:43:34;23.55;;;14.02;;
68089;SDS011;54880;50.986;6.990;2023-08-12T01:46:00;22.87;;;13.47;;
68089;SDS011;54880;50.986;6.990;2023-08-12T01:48:25;22.70;;;13.30;;
68089;SDS011;54880;50.986;6.990;2023-08-12T01:50:51;22.80;;;13.07;;
68089;SDS011;54880;50.986;6.990;2023-08-12T01:53:16;21.27;;;13.77;;
68089;SDS011;54880;50.986;6.990;2023-08-12T01:55:44;21.67;;;13.80;;
68089;SDS011;54880;50.986;6.990;2023-08-12T01:58:09;26.08;;;14.25;;
68089;SDS011;54880;50.986;6.990;2023-08-12T02:00:35;21.77;;;13.27;;
68089;SDS011;54880;50.986;6.990;2023-08-12T02:03:00;24.00;;;13.33;;
68089;SDS011;54880;50.986;6.990;2023-08-12T02:05:25;21.93;;;13.43;;
68089;SDS011;54880;50.986;6.990;2023-08-12T02:07:51;20.77;;;12.43;;
68089;SDS011;54880;50.986;6.990;2023-08-12T02:10:17;20.52;;;12.80;;
68089;SDS011;54880;50.986;6.990;2023-08-12T02:12:43;17.77;;;11.40;;
68089;SDS011;54880;50.986;6.990;2023-08-12T02:15:08;19.77;;;11.00;;
68089;SDS011;54880;50.986;6.990;2023-08-12T02:17:34;19.33;;;10.97;;
68089;SDS011;54880;50.986;6.990;2023-08-12T02:19:59;18.10;;;10.67;;
68089;SDS011;54880;50.986;6.990;2023-08-12T02:22:24;17.80;;;9.97;;
68089;SDS011;54880;50.986;6.990;2023-08-12T02:24:50;17.43;;;10.60;;
68089;SDS011;54880;50.986;6.990;2023-08-12T02:27:15;20.10;;;10.57;;
68089;SDS011;54880;50.986;6.990;2023-08-12T02:29:40;18.83;;;10.40;;
68089;SDS011;54880;50.986;6.990;2023-08-12T02:32:05;17.33;;;10.47;;
68089;SDS011;54880;50.986;6.990;2023-08-12T02:34:31;19.60;;;9.90;;
68089;SDS011;54880;50.986;6.990;2023-08-12T02:36:56;19.33;;;10.53;;
68089;SDS011;54880;50.986;6.990;2023-08-12T02:39:21;16.90;;;10.20;;
68089;SDS011;54880;50.986;6.990;2023-08-12T02:41:46;18.13;;;10.53;;
68089;SDS011;54880;50.986;6.990;2023-08-12T02:44:12;19.23;;;10.63;;
68089;SDS011;54880;50.986;6.990;2023-08-12T02:46:37;18.53;;;10.97;;
68089;SDS011;54880;50.986;6.990;2023-08-12T02:49:02;18.43;;;11.20;;
68089;SDS011;54880;50.986;6.990;2023-08-12T02:51:27;17.53;;;9.90;;
68089;SDS011;54880;50.986;6.990;2023-08-12T02:53:53;20.65;;;10.25;;
68089;SDS011;54880;50.986;6.990;2023-08-12T02:56:18;16.92;;;9.88;;
68089;SDS011;54880;50.986;6.990;2023-08-12T02:58:43;15.60;;;9.07;;
68089;SDS011;54880;50.986;6.990;2023-08-12T03:01:09;19.47;;;10.73;;
68089;SDS011;54880;50.986;6.990;2023-08-12T03:03:34;16.97;;;9.63;;
68089;SDS011;54880;50.986;6.990;2023-08-12T03:05:59;14.00;;;8.77;;
68089;SDS011;54880;50.986;6.990;2023-08-12T03:08:26;14.88;;;9.10;;
68089;SDS011;54880;50.986;6.990;2023-08-12T03:11:01;16.52;;;9.48;;
68089;SDS011;54880;50.986;6.990;2023-08-12T03:13:28;16.00;;;9.15;;
68089;SDS011;54880;50.986;6.990;2023-08-12T03:15:54;16.30;;;9.93;;
68089;SDS011;54880;50.986;6.990;2023-08-12T03:18:20;13.98;;;9.00;;
68089;SDS011;54880;50.986;6.990;2023-08-12T03:20:45;18.40;;;9.70;;
68089;SDS011;54880;50.986;6.990;2023-08-12T03:23:10;14.67;;;9.90;;
68089;SDS011;54880;50.986;6.990;2023-08-12T03:25:37;16.00;;;8.95;;
68089;SDS011;54880;50.986;6.990;2023-08-12T03:28:02;15.37;;;9.70;;
68089;SDS011;54880;50.986;6.990;2023-08-12T03:30:28;15.45;;;9.45;;
68089;SDS011;54880;50.986;6.990;2023-08-12T03:32:55;17.48;;;9.70;;
68089;SDS011;54880;50.986;6.990;2023-08-12T03:35:22;19.93;;;9.27;;
68089;SDS011;54880;50.986;6.990;2023-08-12T03:37:48;14.70;;;9.25;;
68089;SDS011;54880;50.986;6.990;2023-08-12T03:40:13;17.90;;;10.20;;
68089;SDS011;54880;50.986;6.990;2023-08-12T03:42:39;17.17;;;10.50;;
68089;SDS011;54880;50.986;6.990;2023-08-12T03:45:05;16.77;;;10.13;;
68089;SDS011;54880;50.986;6.990;2023-08-12T03:47:31;16.55;;;10.75;;
68089;SDS011;54880;50.986;6.990;2023-08-12T03:49:56;15.73;;;9.32;;
68089;SDS011;54880;50.986;6.990;2023-08-12T03:52:22;13.90;;;9.53;;
68089;SDS011;54880;50.986;6.990;2023-08-12T03:54:47;16.93;;;8.73;;
68089;SDS011;54880;50.986;6.990;2023-08-12T03:57:13;15.13;;;9.13;;
68089;SDS011;54880;50.986;6.990;2023-08-12T03:59:38;17.23;;;9.40;;
68089;SDS011;54880;50.986;6.990;2023-08-12T04:02:03;17.43;;;8.87;;
68089;SDS011;54880;50.986;6.990;2023-08-12T04:04:31;15.57;;;8.73;;
68089;SDS011;54880;50.986;6.990;2023-08-12T04:06:57;15.88;;;9.18;;
68089;SDS011;54880;50.986;6.990;2023-08-12T04:09:22;20.83;;;9.07;;
68089;SDS011;54880;50.986;6.990;2023-08-12T04:11:47;15.23;;;8.52;;
68089;SDS011;54880;50.986;6.990;2023-08-12T04:14:13;15.05;;;8.77;;
68089;SDS011;54880;50.986;6.990;2023-08-12T04:16:38;15.95;;;9.75;;
68089;SDS011;54880;50.986;6.990;2023-08-12T04:19:04;14.73;;;8.57;;
68089;SDS011;54880;50.986;6.990;2023-08-12T04:21:29;17.50;;;8.70;;
68089;SDS011;54880;50.986;6.990;2023-08-12T04:23:55;16.38;;;8.85;;
68089;SDS011;54880;50.986;6.990;2023-08-12T04:26:21;15.03;;;9.33;;
68089;SDS011;54880;50.986;6.990;2023-08-12T04:28:46;15.60;;;9.30;;
68089;SDS011;54880;50.986;6.990;2023-08-12T04:31:12;14.20;;;8.67;;
68089;SDS011;54880;50.986;6.990;2023-08-12T04:33:40;14.52;;;8.15;;
68089;SDS011;54880;50.986;6.990;2023-08-12T04:36:06;18.47;;;8.97;;
68089;SDS011;54880;50.986;6.990;2023-08-12T04:38:31;13.48;;;7.95;;
68089;SDS011;54880;50.986;6.990;2023-08-12T04:40:58;15.02;;;7.60;;
68089;SDS011;54880;50.986;6.990;2023-08-12T04:43:23;14.30;;;7.53;;
68089;SDS011;54880;50.986;6.990;2023-08-12T04:45:49;14.17;;;7.73;;
68089;SDS011;54880;50.986;6.990;2023-08-12T04:48:17;12.23;;;7.30;;
68089;SDS011;54880;50.986;6.990;2023-08-12T04:50:43;13.30;;;7.23;;
68089;SDS011;54880;50.986;6.990;2023-08-12T04:53:08;14.07;;;6.73;;
68089;SDS011;54880;50.986;6.990;2023-08-12T04:55:34;11.88;;;7.18;;
68089;SDS011;54880;50.986;6.990;2023-08-12T04:58:01;12.00;;;7.18;;
68089;SDS011;54880;50.986;6.990;2023-08-12T05:00:26;12.43;;;6.82;;
68089;SDS011;54880;50.986;6.990;2023-08-12T05:02:53;14.73;;;7.13;;
68089;SDS011;54880;50.986;6.990;2023-08-12T05:05:18;11.43;;;6.50;;
68089;SDS011;54880;50.986;6.990;2023-08-12T05:07:44;11.00;;;6.90;;
68089;SDS011;54880;50.986;6.990;2023-08-12T05:10:15;13.25;;;6.72;;
68089;SDS011;54880;50.986;6.990;2023-08-12T05:12:40;10.25;;;6.82;;
68089;SDS011;54880;50.986;6.990;2023-08-12T05:15:06;11.70;;;6.83;;
68089;SDS011;54880;50.986;6.990;2023-08-12T05:17:31;11.37;;;6.77;;
68089;SDS011;54880;50.986;6.990;2023-08-12T05:19:56;11.53;;;6.50;;
68089;SDS011;54880;50.986;6.990;2023-08-12T05:22:22;11.73;;;6.25;;
68089;SDS011;54880;50.986;6.990;2023-08-12T05:24:47;10.85;;;6.68;;
68089;SDS011;54880;50.986;6.990;2023-08-12T05:27:12;11.27;;;6.50;;
68089;SDS011;54880;50.986;6.990;2023-08-12T05:29:37;10.67;;;6.33;;
68089;SDS011;54880;50.986;6.990;2023-08-12T05:32:03;11.43;;;6.67;;
68089;SDS011;54880;50.986;6.990;2023-08-12T05:34:28;10.43;;;5.80;;
68089;SDS011;54880;50.986;6.990;2023-08-12T05:36:53;10.93;;;6.13;;
68089;SDS011;54880;50.986;6.990;2023-08-12T05:39:18;12.47;;;6.80;;
68089;SDS011;54880;50.986;6.990;2023-08-12T05:41:44;10.83;;;6.10;;
68089;SDS011;54880;50.986;6.990;2023-08-12T05:44:10;10.15;;;5.75;;
68089;SDS011;54880;50.986;6.990;2023-08-12T05:46:35;10.05;;;6.25;;
68089;SDS011;54880;50.986;6.990;2023-08-12T05:49:00;11.43;;;6.10;;
68089;SDS011;54880;50.986;6.990;2023-08-12T05:51:25;10.83;;;6.33;;
68089;SDS011;54880;50.986;6.990;2023-08-12T05:53:51;10.73;;;5.70;;
68089;SDS011;54880;50.986;6.990;2023-08-12T05:56:16;10.07;;;5.90;;
68089;SDS011;54880;50.986;6.990;2023-08-12T05:58:41;10.43;;;6.00;;
68089;SDS011;54880;50.986;6.990;2023-08-12T06:01:07;10.83;;;6.37;;
68089;SDS011;54880;50.986;6.990;2023-08-12T06:03:32;12.30;;;5.93;;
68089;SDS011;54880;50.986;6.990;2023-08-12T06:05:57;10.50;;;6.20;;
68089;SDS011;54880;50.986;6.990;2023-08-12T06:08:22;13.77;;;7.07;;
68089;SDS011;54880;50.986;6.990;2023-08-12T06:10:47;13.00;;;6.87;;
68089;SDS011;54880;50.986;6.990;2023-08-12T06:13:13;9.63;;;6.20;;
68089;SDS011;54880;50.986;6.990;2023-08-12T06:15:38;12.10;;;6.93;;
68089;SDS011;54880;50.986;6.990;2023-08-12T06:18:04;10.48;;;6.60;;
68089;SDS011;54880;50.986;6.990;2023-08-12T06:20:29;12.50;;;7.03;;
68089;SDS011;54880;50.986;6.990;2023-08-12T06:22:55;11.07;;;7.20;;
68089;SDS011;54880;50.986;6.990;2023-08-12T06:25:20;13.43;;;7.37;;
68089;SDS011;54880;50.986;6.990;2023-08-12T06:27:46;12.88;;;7.43;;
68089;SDS011;54880;50.986;6.990;2023-08-12T06:30:12;11.33;;;7.43;;
68089;SDS011;54880;50.986;6.990;2023-08-12T06:32:37;14.50;;;8.32;;
68089;SDS011;54880;50.986;6.990;2023-08-12T06:35:03;13.53;;;7.70;;
68089;SDS011;54880;50.986;6.990;2023-08-12T06:37:28;13.33;;;7.53;;
68089;SDS011;54880;50.986;6.990;2023-08-12T06:39:53;16.30;;;7.73;;
68089;SDS011;54880;50.986;6.990;2023-08-12T06:42:20;11.13;;;7.30;;
68089;SDS011;54880;50.986;6.990;2023-08-12T06:44:45;12.77;;;7.67;;
68089;SDS011;54880;50.986;6.990;2023-08-12T06:47:11;11.40;;;6.90;;
68089;SDS011;54880;50.986;6.990;2023-08-12T06:49:36;11.87;;;6.13;;
68089;SDS011;54880;50.986;6.990;2023-08-12T06:52:01;10.50;;;6.03;;
68089;SDS011;54880;50.986;6.990;2023-08-12T06:54:27;9.95;;;5.45;;
68089;SDS011;54880;50.986;6.990;2023-08-12T06:56:52;10.23;;;5.10;;
68089;SDS011;54880;50.986;6.990;2023-08-12T06:59:17;11.30;;;4.60;;
68089;SDS011;54880;50.986;6.990;2023-08-12T07:01:43;9.97;;;4.70;;
68089;SDS011;54880;50.986;6.990;2023-08-12T07:04:08;10.80;;;5.27;;
68089;SDS011;54880;50.986;6.990;2023-08-12T07:06:33;9.37;;;4.60;;
68089;SDS011;54880;50.986;6.990;2023-08-12T07:08:58;8.40;;;4.33;;
68089;SDS011;54880;50.986;6.990;2023-08-12T07:11:24;8.97;;;4.77;;
68089;SDS011;54880;50.986;6.990;2023-08-12T07:13:49;9.90;;;4.33;;
68089;SDS011;54880;50.986;6.990;2023-08-12T07:16:14;8.20;;;4.40;;
68089;SDS011;54880;50.986;6.990;2023-08-12T07:18:39;8.60;;;4.30;;
68089;SDS011;54880;50.986;6.990;2023-08-12T07:21:05;9.53;;;4.47;;
68089;SDS011;54880;50.986;6.990;2023-08-12T07:23:30;7.83;;;3.90;;
68089;SDS011;54880;50.986;6.990;2023-08-12T07:25:55;8.50;;;3.55;;
68089;SDS011;54880;50.986;6.990;2023-08-12T07:28:21;6.57;;;3.20;;
68089;SDS011;54880;50.986;6.990;2023-08-12T07:30:47;6.57;;;3.20;;
68089;SDS011;54880;50.986;6.990;2023-08-12T07:33:12;8.73;;;3.83;;
68089;SDS011;54880;50.986;6.990;2023-08-12T07:35:38;7.78;;;3.22;;
68089;SDS011;54880;50.986;6.990;2023-08-12T07:38:03;8.30;;;3.50;;
68089;SDS011;54880;50.986;6.990;2023-08-12T07:40:28;7.50;;;3.40;;
68089;SDS011;54880;50.986;6.990;2023-08-12T07:42:53;6.70;;;2.77;;
68089;SDS011;54880;50.986;6.990;2023-08-12T07:45:19;8.13;;;3.07;;
68089;SDS011;54880;50.986;6.990;2023-08-12T07:47:44;6.53;;;2.87;;
68089;SDS011;54880;50.986;6.990;2023-08-12T07:50:09;7.60;;;3.27;;
68089;SDS011;54880;50.986;6.990;2023-08-12T07:52:35;8.50;;;3.37;;
68089;SDS011;54880;50.986;6.990;2023-08-12T07:55:01;7.75;;;3.45;;
68089;SDS011;54880;50.986;6.990;2023-08-12T07:57:26;6.70;;;2.90;;
68089;SDS011;54880;50.986;6.990;2023-08-12T07:59:52;7.70;;;3.27;;
68089;SDS011;54880;50.986;6.990;2023-08-12T08:02:17;6.83;;;3.50;;
68089;SDS011;54880;50.986;6.990;2023-08-12T08:04:42;9.10;;;3.47;;
68089;SDS011;54880;50.986;6.990;2023-08-12T08:07:07;8.23;;;3.23;;
68089;SDS011;54880;50.986;6.990;2023-08-12T08:09:33;7.03;;;3.00;;
68089;SDS011;54880;50.986;6.990;2023-08-12T08:11:59;7.80;;;3.20;;
68089;SDS011;54880;50.986;6.990;2023-08-12T08:14:25;9.05;;;3.20;;
68089;SDS011;54880;50.986;6.990;2023-08-12T08:16:51;11.70;;;3.23;;
68089;SDS011;54880;50.986;6.990;2023-08-12T08:19:16;8.67;;;3.10;;
68089;SDS011;54880;50.986;6.990;2023-08-12T08:21:41;6.33;;;3.33;;
68089;SDS011;54880;50.986;6.990;2023-08-12T08:24:06;7.17;;;3.20;;
68089;SDS011;54880;50.986;6.990;2023-08-12T08:26:33;6.88;;;2.55;;
68089;SDS011;54880;50.986;6.990;2023-08-12T08:28:58;6.93;;;2.80;;
68089;SDS011;54880;50.986;6.990;2023-08-12T08:31:23;8.67;;;3.10;;
68089;SDS011;54880;50.986;6.990;2023-08-12T08:33:49;7.20;;;2.50;;
68089;SDS011;54880;50.986;6.990;2023-08-12T08:36:14;7.17;;;2.97;;
68089;SDS011;54880;50.986;6.990;2023-08-12T08:38:39;8.73;;;2.93;;
68089;SDS011;54880;50.986;6.990;2023-08-12T08:41:05;7.60;;;2.90;;
68089;SDS011;54880;50.986;6.990;2023-08-12T08:43:30;10.37;;;2.50;;
68089;SDS011;54880;50.986;6.990;2023-08-12T08:45:57;8.75;;;3.10;;
68089;SDS011;54880;50.986;6.990;2023-08-12T08:48:23;5.97;;;2.63;;
68089;SDS011;54880;50.986;6.990;2023-08-12T08:50:48;6.97;;;2.70;;
68089;SDS011;54880;50.986;6.990;2023-08-12T08:53:15;6.70;;;3.13;;
68089;SDS011;54880;50.986;6.990;2023-08-12T08:55:41;6.40;;;2.37;;
68089;SDS011;54880;50.986;6.990;2023-08-12T08:58:06;7.95;;;2.83;;
68089;SDS011;54880;50.986;6.990;2023-08-12T09:00:32;7.30;;;2.43;;
68089;SDS011;54880;50.986;6.990;2023-08-12T09:02:57;8.43;;;2.67;;
68089;SDS011;54880;50.986;6.990;2023-08-12T09:05:23;7.43;;;2.55;;
68089;SDS011;54880;50.986;6.990;2023-08-12T09:07:48;6.72;;;2.80;;
68089;SDS011;54880;50.986;6.990;2023-08-12T09:10:14;9.85;;;3.25;;
68089;SDS011;54880;50.986;6.990;2023-08-12T09:12:40;7.75;;;2.80;;
68089;SDS011;54880;50.986;6.990;2023-08-12T09:15:06;7.97;;;2.83;;
68089;SDS011;54880;50.986;6.990;2023-08-12T09:17:32;5.90;;;2.22;;
68089;SDS011;54880;50.986;6.990;2023-08-12T09:19:57;7.17;;;2.60;;
68089;SDS011;54880;50.986;6.990;2023-08-12T09:22:23;6.32;;;2.35;;
68089;SDS011;54880;50.986;6.990;2023-08-12T09:24:49;7.90;;;2.50;;
68089;SDS011;54880;50.986;6.990;2023-08-12T09:27:16;6.55;;;2.40;;
68089;SDS011;54880;50.986;6.990;2023-08-12T09:29:42;7.33;;;2.70;;
68089;SDS011;54880;50.986;6.990;2023-08-12T09:32:11;7.27;;;2.13;;
68089;SDS011;54880;50.986;6.990;2023-08-12T09:34:37;6.07;;;2.20;;
68089;SDS011;54880;50.986;6.990;2023-08-12T09:37:02;7.90;;;2.50;;
68089;SDS011;54880;50.986;6.990;2023-08-12T09:39:28;5.80;;;2.20;;
68089;SDS011;54880;50.986;6.990;2023-08-12T09:41:54;5.72;;;2.30;;
68089;SDS011;54880;50.986;6.990;2023-08-12T09:44:20;6.77;;;2.27;;
68089;SDS011;54880;50.986;6.990;2023-08-12T09:46:45;6.50;;;2.50;;
68089;SDS011;54880;50.986;6.990;2023-08-12T09:49:10;8.20;;;2.47;;
68089;SDS011;54880;50.986;6.990;2023-08-12T09:51:36;7.90;;;2.37;;
68089;SDS011;54880;50.986;6.990;2023-08-12T09:54:01;6.23;;;2.30;;
68089;SDS011;54880;50.986;6.990;2023-08-12T09:56:27;6.10;;;2.20;;
68089;SDS011;54880;50.986;6.990;2023-08-12T09:58:54;7.28;;;2.00;;
68089;SDS011;54880;50.986;6.990;2023-08-12T10:01:20;5.97;;;2.00;;
68089;SDS011;54880;50.986;6.990;2023-08-12T10:03:48;5.93;;;1.93;;
68089;SDS011;54880;50.986;6.990;2023-08-12T10:06:14;7.25;;;2.00;;
68089;SDS011;54880;50.986;6.990;2023-08-12T10:08:40;6.15;;;1.95;;
68089;SDS011;54880;50.986;6.990;2023-08-12T10:11:05;5.70;;;2.40;;
68089;SDS011;54880;50.986;6.990;2023-08-12T10:13:31;6.65;;;2.13;;
68089;SDS011;54880;50.986;6.990;2023-08-12T10:15:56;7.50;;;1.90;;
68089;SDS011;54880;50.986;6.990;2023-08-12T10:18:22;5.87;;;1.90;;
68089;SDS011;54880;50.986;6.990;2023-08-12T10:20:47;5.63;;;2.30;;
68089;SDS011;54880;50.986;6.990;2023-08-12T10:23:16;6.30;;;2.30;;
68089;SDS011;54880;50.986;6.990;2023-08-12T10:25:43;7.07;;;2.10;;
68089;SDS011;54880;50.986;6.990;2023-08-12T10:28:08;7.18;;;2.20;;
68089;SDS011;54880;50.986;6.990;2023-08-12T10:30:34;7.40;;;2.40;;
68089;SDS011;54880;50.986;6.990;2023-08-12T10:32:59;8.13;;;2.17;;
68089;SDS011;54880;50.986;6.990;2023-08-12T10:35:39;5.78;;;2.10;;
68089;SDS011;54880;50.986;6.990;2023-08-12T10:38:05;7.75;;;2.42;;
68089;SDS011;54880;50.986;6.990;2023-08-12T10:40:31;6.17;;;2.57;;
68089;SDS011;54880;50.986;6.990;2023-08-12T10:42:56;7.17;;;2.43;;
68089;SDS011;54880;50.986;6.990;2023-08-12T10:45:21;7.85;;;2.25;;
68089;SDS011;54880;50.986;6.990;2023-08-12T10:50:25;7.50;;;2.20;;
68089;SDS011;54880;50.986;6.990;2023-08-12T10:52:51;8.13;;;2.33;;
68089;SDS011;54880;50.986;6.990;2023-08-12T10:57:43;7.10;;;2.37;;
68089;SDS011;54880;50.986;6.990;2023-08-12T11:00:15;6.15;;;2.22;;
68089;SDS011;54880;50.986;6.990;2023-08-12T11:02:44;6.75;;;2.55;;
68089;SDS011;54880;50.986;6.990;2023-08-12T11:05:10;8.27;;;2.72;;
68089;SDS011;54880;50.986;6.990;2023-08-12T11:10:23;8.02;;;2.80;;
68089;SDS011;54880;50.986;6.990;2023-08-12T11:15:17;9.53;;;3.10;;
68089;SDS011;54880;50.986;6.990;2023-08-12T11:17:43;8.52;;;2.60;;
68089;SDS011;54880;50.986;6.990;2023-08-12T11:20:11;7.15;;;2.72;;
68089;SDS011;54880;50.986;6.990;2023-08-12T11:22:37;9.55;;;3.08;;
68089;SDS011;54880;50.986;6.990;2023-08-12T11:25:06;15.55;;;3.67;;
68089;SDS011;54880;50.986;6.990;2023-08-12T11:27:36;9.55;;;2.90;;
68089;SDS011;54880;50.986;6.990;2023-08-12T11:30:02;6.50;;;2.35;;
68089;SDS011;54880;50.986;6.990;2023-08-12T11:32:28;7.30;;;2.50;;
68089;SDS011;54880;50.986;6.990;2023-08-12T11:34:53;6.20;;;2.10;;
68089;SDS011;54880;50.986;6.990;2023-08-12T11:37:18;7.00;;;2.10;;
68089;SDS011;54880;50.986;6.990;2023-08-12T11:39:44;7.57;;;2.10;;
68089;SDS011;54880;50.986;6.990;2023-08-12T11:42:09;6.07;;;1.90;;
68089;SDS011;54880;50.986;6.990;2023-08-12T11:44:34;5.40;;;1.90;;
68089;SDS011;54880;50.986;6.990;2023-08-12T11:46:59;4.80;;;1.90;;
68089;SDS011;54880;50.986;6.990;2023-08-12T11:49:25;5.90;;;2.30;;
68089;SDS011;54880;50.986;6.990;2023-08-12T11:51:50;7.20;;;1.80;;
68089;SDS011;54880;50.986;6.990;2023-08-12T11:54:15;6.40;;;1.70;;
68089;SDS011;54880;50.986;6.990;2023-08-12T11:56:41;5.25;;;1.85;;
68089;SDS011;54880;50.986;6.990;2023-08-12T11:59:07;4.87;;;1.60;;
68089;SDS011;54880;50.986;6.990;2023-08-12T12:01:32;6.93;;;1.87;;
68089;SDS011;54880;50.986;6.990;2023-08-12T12:03:59;5.63;;;1.57;;
68089;SDS011;54880;50.986;6.990;2023-08-12T12:06:31;6.35;;;1.92;;
68089;SDS011;54880;50.986;6.990;2023-08-12T12:09:00;5.25;;;2.05;;
68089;SDS011;54880;50.986;6.990;2023-08-12T12:11:29;7.72;;;1.65;;
68089;SDS011;54880;50.986;6.990;2023-08-12T12:13:54;7.50;;;2.10;;
68089;SDS011;54880;50.986;6.990;2023-08-12T12:16:19;5.47;;;1.80;;
68089;SDS011;54880;50.986;6.990;2023-08-12T12:18:45;7.03;;;2.50;;
68089;SDS011;54880;50.986;6.990;2023-08-12T12:21:10;4.93;;;1.60;;
68089;SDS011;54880;50.986;6.990;2023-08-12T12:23:36;6.23;;;1.80;;
68089;SDS011;54880;50.986;6.990;2023-08-12T12:26:02;7.43;;;1.90;;
68089;SDS011;54880;50.986;6.990;2023-08-12T12:28:28;5.57;;;1.80;;
68089;SDS011;54880;50.986;6.990;2023-08-12T12:30:53;6.63;;;1.50;;
68089;SDS011;54880;50.986;6.990;2023-08-12T12:33:19;6.27;;;1.93;;
68089;SDS011;54880;50.986;6.990;2023-08-12T12:35:44;5.07;;;1.80;;
68089;SDS011;54880;50.986;6.990;2023-08-12T12:38:09;4.87;;;1.70;;
68089;SDS011;54880;50.986;6.990;2023-08-12T12:40:34;5.00;;;1.67;;
68089;SDS011;54880;50.986;6.990;2023-08-12T12:43:00;7.17;;;1.57;;
68089;SDS011;54880;50.986;6.990;2023-08-12T12:45:25;4.90;;;1.83;;
68089;SDS011;54880;50.986;6.990;2023-08-12T12:47:50;4.63;;;1.50;;
68089;SDS011;54880;50.986;6.990;2023-08-12T12:50:15;5.20;;;1.60;;
68089;SDS011;54880;50.986;6.990;2023-08-12T12:52:42;5.07;;;1.67;;
68089;SDS011;54880;50.986;6.990;2023-08-12T12:55:07;4.97;;;1.53;;
68089;SDS011;54880;50.986;6.990;2023-08-12T12:57:33;4.35;;;1.40;;
68089;SDS011;54880;50.986;6.990;2023-08-12T12:59:58;6.50;;;1.67;;
68089;SDS011;54880;50.986;6.990;2023-08-12T13:02:23;6.10;;;1.43;;
68089;SDS011;54880;50.986;6.990;2023-08-12T13:04:49;5.63;;;1.70;;
68089;SDS011;54880;50.986;6.990;2023-08-12T13:07:15;6.25;;;1.65;;
68089;SDS011;54880;50.986;6.990;2023-08-12T13:09:40;7.40;;;1.95;;
68089;SDS011;54880;50.986;6.990;2023-08-12T13:12:05;7.53;;;2.13;;
68089;SDS011;54880;50.986;6.990;2023-08-12T13:14:30;10.10;;;2.23;;
68089;SDS011;54880;50.986;6.990;2023-08-12T13:16:56;6.53;;;2.00;;
68089;SDS011;54880;50.986;6.990;2023-08-12T13:19:21;5.20;;;1.57;;
68089;SDS011;54880;50.986;6.990;2023-08-12T13:21:46;5.30;;;1.90;;
68089;SDS011;54880;50.986;6.990;2023-08-12T13:24:11;5.57;;;1.60;;
68089;SDS011;54880;50.986;6.990;2023-08-12T13:26:37;16.37;;;1.73;;
68089;SDS011;54880;50.986;6.990;2023-08-12T13:29:02;6.60;;;1.50;;
68089;SDS011;54880;50.986;6.990;2023-08-12T13:31:28;5.13;;;1.27;;
68089;SDS011;54880;50.986;6.990;2023-08-12T13:33:54;5.40;;;1.27;;
68089;SDS011;54880;50.986;6.990;2023-08-12T13:36:19;4.80;;;1.20;;
68089;SDS011;54880;50.986;6.990;2023-08-12T13:38:44;5.97;;;1.23;;
68089;SDS011;54880;50.986;6.990;2023-08-12T13:41:09;6.07;;;1.80;;
68089;SDS011;54880;50.986;6.990;2023-08-12T13:43:35;5.77;;;1.60;;
68089;SDS011;54880;50.986;6.990;2023-08-12T13:46:00;5.67;;;1.20;;
68089;SDS011;54880;50.986;6.990;2023-08-12T13:48:25;5.90;;;1.70;;
68089;SDS011;54880;50.986;6.990;2023-08-12T13:50:52;5.82;;;1.52;;
68089;SDS011;54880;50.986;6.990;2023-08-12T13:53:17;6.23;;;1.40;;
68089;SDS011;54880;50.986;6.990;2023-08-12T13:55:43;4.70;;;1.70;;
68089;SDS011;54880;50.986;6.990;2023-08-12T13:58:08;4.90;;;1.70;;
68089;SDS011;54880;50.986;6.990;2023-08-12T14:00:33;4.80;;;1.77;;
68089;SDS011;54880;50.986;6.990;2023-08-12T14:02:58;4.87;;;1.70;;
68089;SDS011;54880;50.986;6.990;2023-08-12T14:05:24;5.57;;;1.70;;
68089;SDS011;54880;50.986;6.990;2023-08-12T14:07:49;5.00;;;1.83;;
68089;SDS011;54880;50.986;6.990;2023-08-12T14:10:14;5.67;;;1.70;;
68089;SDS011;54880;50.986;6.990;2023-08-12T14:12:39;3.93;;;1.13;;
68089;SDS011;54880;50.986;6.990;2023-08-12T14:15:05;4.27;;;1.17;;
68089;SDS011;54880;50.986;6.990;2023-08-12T14:17:31;5.57;;;1.38;;
68089;SDS011;54880;50.986;6.990;2023-08-12T14:19:56;4.63;;;1.30;;
68089;SDS011;54880;50.986;6.990;2023-08-12T14:22:23;4.47;;;1.40;;
68089;SDS011;54880;50.986;6.990;2023-08-12T14:24:49;4.65;;;1.25;;
68089;SDS011;54880;50.986;6.990;2023-08-12T14:27:17;3.70;;;1.10;;
68089;SDS011;54880;50.986;6.990;2023-08-12T14:29:43;3.95;;;1.27;;
68089;SDS011;54880;50.986;6.990;2023-08-12T14:32:08;4.30;;;1.20;;
68089;SDS011;54880;50.986;6.990;2023-08-12T14:34:33;4.77;;;1.10;;
68089;SDS011;54880;50.986;6.990;2023-08-12T14:36:58;4.70;;;1.50;;
68089;SDS011;54880;50.986;6.990;2023-08-12T14:39:24;4.47;;;1.20;;
68089;SDS011;54880;50.986;6.990;2023-08-12T14:41:49;3.73;;;0.93;;
68089;SDS011;54880;50.986;6.990;2023-08-12T14:44:14;5.33;;;1.80;;